Alamo, Tennessee
Current Conditions -  °F | °C
As of 4:53 PM on Wednesday 26 Nov 2014 (Local Time) from KMKL Reporting Station
Overcast Overcast  
Wind Chill: 41°   Ceiling: 4500
Heat Index: 47°   Visibility: 10mi
Dew Point: 34°   Wind: 13mph
Humidity: 61%   Direction: 280°W
Pressure: 30.03"   Gusts: 21mph
Location:  35.78°N, 89.12°W
Report Text: KMKL 262253Z 28011G18KT 10SM BKN045 OVC065 08/01 A3003 RMK AO2 SLP171 T00830011
Loading
Personal Weather Stations






























Interactive Weather Map New forecast layout! Learn more

10-Day Weather Forecast

Advertisements
Track Severe Weather on mobile